createdAt,value
2023-05-04T00:02:07.740Z,11.40
2023-05-04T00:04:34.531Z,11.40
2023-05-04T00:07:01.345Z,11.40
2023-05-04T00:09:28.053Z,11.40
2023-05-04T00:12:02.385Z,11.40
2023-05-04T00:14:29.139Z,11.30
2023-05-04T00:17:01.585Z,11.30
2023-05-04T00:19:28.356Z,11.30
2023-05-04T00:21:55.156Z,11.30
2023-05-04T00:24:21.866Z,11.30
2023-05-04T00:26:48.605Z,11.20
2023-05-04T00:29:15.574Z,11.20
2023-05-04T00:31:44.831Z,11.20
2023-05-04T00:34:11.858Z,11.20
2023-05-04T00:36:38.589Z,11.20
2023-05-04T00:39:06.086Z,11.20
2023-05-04T00:41:34.977Z,11.20
2023-05-04T00:44:04.127Z,11.20
2023-05-04T00:46:31.471Z,11.20
2023-05-04T00:48:59.750Z,11.10
2023-05-04T00:51:26.988Z,11.10
2023-05-04T00:53:56.621Z,11.10
2023-05-04T00:56:26.371Z,11.10
2023-05-04T00:58:54.409Z,11.10
2023-05-04T01:01:24.198Z,11.00
2023-05-04T01:03:52.062Z,11.00
2023-05-04T01:06:26.036Z,11.00
2023-05-04T01:09:08.388Z,11.00
2023-05-04T01:11:44.078Z,10.90
2023-05-04T01:14:12.579Z,10.80
2023-05-04T01:16:39.368Z,10.70
2023-05-04T01:19:08.575Z,10.70
2023-05-04T01:21:36.796Z,10.70
2023-05-04T01:24:03.619Z,10.70
2023-05-04T01:26:32.272Z,10.60
2023-05-04T01:29:16.378Z,10.60
2023-05-04T01:31:44.418Z,10.60
2023-05-04T01:34:11.651Z,10.60
2023-05-04T01:36:39.417Z,10.60
2023-05-04T01:39:06.349Z,10.60
2023-05-04T01:41:33.294Z,10.60
2023-05-04T01:44:00.147Z,10.60
2023-05-04T01:46:26.967Z,10.60
2023-05-04T01:48:56.239Z,10.50
2023-05-04T01:51:22.967Z,10.50
2023-05-04T01:53:50.371Z,10.50
2023-05-04T01:56:17.649Z,10.40
2023-05-04T01:58:44.879Z,10.30
2023-05-04T02:01:11.834Z,10.30
2023-05-04T02:03:38.845Z,10.20
2023-05-04T02:06:06.161Z,10.20
2023-05-04T02:08:33.308Z,10.20
2023-05-04T02:11:00.072Z,10.20
2023-05-04T02:13:26.858Z,10.10
2023-05-04T02:15:56.176Z,10.00
2023-05-04T02:18:25.527Z,10.00
2023-05-04T02:20:54.757Z,10.10
2023-05-04T02:23:21.554Z,10.10
2023-05-04T02:25:50.635Z,10.10
2023-05-04T02:28:17.523Z,10.10
2023-05-04T02:30:44.422Z,10.10
2023-05-04T02:33:11.210Z,10.00
2023-05-04T02:35:38.048Z,10.00
2023-05-04T02:38:05.700Z,10.00
2023-05-04T02:40:34.920Z,9.90
2023-05-04T02:43:01.774Z,9.90
2023-05-04T02:45:28.590Z,9.80
2023-05-04T02:47:55.424Z,9.80
2023-05-04T02:50:22.192Z,9.80
2023-05-04T02:52:51.532Z,9.90
2023-05-04T02:55:20.775Z,9.80
2023-05-04T02:57:47.559Z,9.80
2023-05-04T03:04:16.266Z,9.80
2023-05-04T03:06:45.272Z,9.60
2023-05-04T03:09:12.538Z,9.60
2023-05-04T03:11:39.274Z,9.50
2023-05-04T03:14:08.347Z,9.60
2023-05-04T03:16:37.158Z,9.60
2023-05-04T03:19:04.070Z,9.60
2023-05-04T03:21:30.889Z,9.50
2023-05-04T03:23:58.519Z,9.60
2023-05-04T03:26:25.424Z,9.60
2023-05-04T03:28:52.939Z,9.60
2023-05-04T03:31:19.788Z,9.50
2023-05-04T03:33:49.793Z,9.50
2023-05-04T03:36:19.224Z,9.50
2023-05-04T03:38:46.685Z,9.60
2023-05-04T03:41:13.741Z,9.60
2023-05-04T03:43:40.514Z,9.50
2023-05-04T03:46:07.401Z,9.50
2023-05-04T03:48:34.205Z,9.50
2023-05-04T03:51:06.482Z,9.40
2023-05-04T03:53:36.721Z,9.40
2023-05-04T03:56:05.846Z,9.40
2023-05-04T03:58:32.751Z,9.30
2023-05-04T04:01:03.701Z,9.20
2023-05-04T04:03:36.386Z,9.20
2023-05-04T04:06:08.481Z,9.10
2023-05-04T04:08:35.838Z,9.10
2023-05-04T04:11:03.000Z,9.10
2023-05-04T04:13:29.830Z,9.00
2023-05-04T04:15:56.666Z,9.10
2023-05-04T04:18:24.291Z,9.10
2023-05-04T04:20:51.134Z,9.10
2023-05-04T04:23:19.268Z,9.10
2023-05-04T04:25:46.431Z,9.00
2023-05-04T04:28:13.986Z,9.00
2023-05-04T04:30:41.609Z,9.00
2023-05-04T04:33:08.701Z,9.00
2023-05-04T04:35:35.743Z,9.00
2023-05-04T04:38:03.894Z,9.00
2023-05-04T04:40:30.882Z,9.00
2023-05-04T04:42:57.689Z,9.00
2023-05-04T04:45:24.697Z,9.10
2023-05-04T04:47:51.554Z,9.10
2023-05-04T04:50:19.254Z,9.20
2023-05-04T04:52:46.278Z,9.10
2023-05-04T04:55:13.362Z,9.10
2023-05-04T04:57:42.358Z,9.20
2023-05-04T05:00:14.329Z,9.20
2023-05-04T05:02:41.187Z,9.20
2023-05-04T05:05:08.402Z,9.10
2023-05-04T05:07:36.335Z,9.20
2023-05-04T05:10:06.346Z,9.20
2023-05-04T05:12:33.325Z,9.20
2023-05-04T05:15:00.047Z,9.20
2023-05-04T05:17:29.067Z,9.30
2023-05-04T05:19:56.189Z,9.30
2023-05-04T05:22:25.014Z,9.40
2023-05-04T05:24:51.860Z,9.50
2023-05-04T05:27:20.905Z,9.50
2023-05-04T05:29:47.746Z,9.60
2023-05-04T05:32:16.798Z,9.70
2023-05-04T05:34:45.889Z,9.70
2023-05-04T05:37:12.718Z,9.70
2023-05-04T05:39:39.555Z,9.80
2023-05-04T05:42:06.729Z,9.90
2023-05-04T05:44:34.522Z,9.90
2023-05-04T05:47:02.337Z,10.00
2023-05-04T05:49:29.321Z,10.00
2023-05-04T05:51:56.205Z,10.00
2023-05-04T05:54:23.130Z,10.10
2023-05-04T05:56:52.361Z,10.10
2023-05-04T05:59:19.073Z,10.20
2023-05-04T06:01:48.059Z,10.20
2023-05-04T06:04:14.967Z,10.30
2023-05-04T06:06:45.946Z,10.30
2023-05-04T06:09:13.380Z,10.40
2023-05-04T06:11:40.261Z,10.50
2023-05-04T06:14:09.423Z,10.50
2023-05-04T06:16:36.267Z,10.50
2023-05-04T06:19:06.754Z,10.50
2023-05-04T06:21:38.288Z,10.60
2023-05-04T06:24:08.012Z,10.70
2023-05-04T06:26:35.030Z,10.80
2023-05-04T06:29:04.434Z,10.80
2023-05-04T06:31:34.007Z,10.90
2023-05-04T06:34:00.925Z,11.00
2023-05-04T06:36:29.923Z,11.00
2023-05-04T06:38:58.267Z,11.10
2023-05-04T06:41:27.540Z,11.10
2023-05-04T06:43:55.248Z,11.20
2023-05-04T06:46:25.365Z,11.30
2023-05-04T06:48:55.308Z,11.30
2023-05-04T06:51:24.324Z,11.40
2023-05-04T06:53:51.133Z,11.40
2023-05-04T06:56:18.122Z,11.50
2023-05-04T06:58:45.011Z,11.50
2023-05-04T07:01:12.372Z,11.60
2023-05-04T07:03:41.626Z,11.70
2023-05-04T07:06:11.464Z,11.80
2023-05-04T07:08:40.964Z,11.80
2023-05-04T07:11:11.857Z,11.90
2023-05-04T07:13:39.044Z,11.90
2023-05-04T07:16:11.172Z,12.00
2023-05-04T07:18:38.972Z,12.10
2023-05-04T07:21:26.968Z,12.20
2023-05-04T07:23:57.008Z,12.30
2023-05-04T07:26:23.918Z,12.40
2023-05-04T07:28:53.275Z,12.40
2023-05-04T07:31:20.226Z,12.50
2023-05-04T07:33:47.590Z,12.60
2023-05-04T07:36:14.440Z,12.70
2023-05-04T07:38:44.187Z,12.70
2023-05-04T07:41:11.196Z,12.80
2023-05-04T07:43:38.077Z,13.00
2023-05-04T07:46:07.439Z,13.10
2023-05-04T07:48:34.782Z,13.20
2023-05-04T07:51:04.085Z,13.30
2023-05-04T07:53:31.008Z,13.30
2023-05-04T07:56:00.794Z,13.40
2023-05-04T07:58:30.332Z,13.60
2023-05-04T08:00:59.362Z,13.70
2023-05-04T08:03:26.345Z,13.70
2023-05-04T08:05:57.851Z,13.80
2023-05-04T08:08:25.501Z,13.90
2023-05-04T08:10:56.246Z,14.10
2023-05-04T08:13:29.325Z,14.20
2023-05-04T08:16:01.025Z,14.40
2023-05-04T08:18:30.917Z,14.60
2023-05-04T08:20:58.425Z,15.00
2023-05-04T08:23:25.683Z,15.50
2023-05-04T08:25:54.663Z,16.10
2023-05-04T08:28:24.438Z,16.60
2023-05-04T08:30:53.422Z,17.40
2023-05-04T08:33:24.809Z,18.60
2023-05-04T08:35:53.909Z,19.60
2023-05-04T08:38:25.194Z,20.40
2023-05-04T08:40:52.630Z,21.10
2023-05-04T08:43:19.458Z,21.40
2023-05-04T08:45:46.556Z,21.80
2023-05-04T08:48:13.909Z,22.00
2023-05-04T08:50:41.270Z,22.10
2023-05-04T08:53:14.809Z,22.60
2023-05-04T08:55:44.251Z,22.60
2023-05-04T08:58:12.938Z,23.40
2023-05-04T09:00:41.198Z,24.20
2023-05-04T09:03:10.345Z,24.60
2023-05-04T09:05:38.310Z,25.00
2023-05-04T09:08:05.737Z,25.40
2023-05-04T09:10:36.816Z,25.30
2023-05-04T09:13:06.630Z,25.50
2023-05-04T09:15:36.358Z,25.60
2023-05-04T09:18:07.784Z,25.90
2023-05-04T09:20:54.924Z,26.20
2023-05-04T09:23:22.482Z,25.80
2023-05-04T09:25:54.734Z,25.60
2023-05-04T09:28:40.380Z,25.40
2023-05-04T09:31:07.764Z,25.30
2023-05-04T09:33:37.801Z,25.60
2023-05-04T09:36:15.644Z,25.70
2023-05-04T09:38:42.730Z,25.70
2023-05-04T09:41:11.947Z,25.30
2023-05-04T09:43:44.900Z,25.40
2023-05-04T09:46:19.465Z,25.30
2023-05-04T09:48:53.776Z,25.00
2023-05-04T09:51:23.611Z,24.70
2023-05-04T09:53:51.980Z,24.20
2023-05-04T09:56:48.173Z,23.70
2023-05-04T09:59:18.124Z,23.20
2023-05-04T10:01:47.419Z,22.80
2023-05-04T10:04:14.407Z,22.30
2023-05-04T10:06:43.325Z,22.30
2023-05-04T10:09:11.707Z,22.70
2023-05-04T10:11:39.284Z,23.00
2023-05-04T10:14:07.412Z,23.30
2023-05-04T10:17:13.828Z,23.00
2023-05-04T10:20:01.681Z,22.40
2023-05-04T10:22:43.650Z,22.20
2023-05-04T10:25:41.052Z,22.10
2023-05-04T10:28:27.026Z,22.00
2023-05-04T10:31:00.147Z,21.80
2023-05-04T10:33:41.501Z,21.40
2023-05-04T10:36:09.865Z,21.20
2023-05-04T10:38:38.566Z,21.10
2023-05-04T10:41:21.857Z,20.80
2023-05-04T10:43:53.481Z,20.80
2023-05-04T10:46:26.339Z,20.70
2023-05-04T10:48:53.337Z,20.60
2023-05-04T10:51:22.474Z,20.50
2023-05-04T10:53:52.794Z,20.30
2023-05-04T10:56:21.083Z,20.20
2023-05-04T10:58:50.606Z,20.00
2023-05-04T11:01:18.341Z,20.00
2023-05-04T11:03:48.420Z,19.90
2023-05-04T11:06:17.477Z,19.90
2023-05-04T11:08:51.162Z,20.00
2023-05-04T11:11:21.794Z,20.10
2023-05-04T11:13:49.453Z,20.30
2023-05-04T11:16:27.013Z,20.30
2023-05-04T11:18:54.456Z,20.30
2023-05-04T11:21:25.764Z,20.30
2023-05-04T11:23:56.137Z,20.40
2023-05-04T11:26:24.335Z,20.20
2023-05-04T11:28:51.620Z,20.10
2023-05-04T11:31:21.967Z,20.10
2023-05-04T11:33:50.625Z,20.20
2023-05-04T11:36:23.225Z,20.50
2023-05-04T11:38:50.890Z,20.70
2023-05-04T11:41:20.316Z,20.90
2023-05-04T11:43:47.708Z,21.10
2023-05-04T11:46:16.512Z,21.50
2023-05-04T11:48:47.181Z,21.60
2023-05-04T11:51:16.281Z,21.70
2023-05-04T11:53:43.234Z,21.60
2023-05-04T11:56:10.193Z,21.40
2023-05-04T11:58:37.543Z,21.30
2023-05-04T12:01:04.996Z,21.40
2023-05-04T12:03:52.418Z,21.50
2023-05-04T12:06:31.789Z,21.70
2023-05-04T12:09:04.266Z,21.80
2023-05-04T12:11:31.394Z,21.60
2023-05-04T12:14:06.965Z,21.60
2023-05-04T12:16:37.470Z,21.30
2023-05-04T12:19:10.845Z,21.30
2023-05-04T12:21:52.261Z,21.10
2023-05-04T12:24:21.781Z,21.00
2023-05-04T12:26:48.892Z,20.90
2023-05-04T12:29:18.387Z,20.80
2023-05-04T12:31:47.787Z,20.80
2023-05-04T12:34:16.935Z,20.90
2023-05-04T12:36:44.470Z,21.00
2023-05-04T12:39:14.394Z,20.90
2023-05-04T12:41:43.516Z,20.90
2023-05-04T12:44:11.518Z,20.90
2023-05-04T12:46:40.841Z,21.10
2023-05-04T12:49:10.996Z,21.20
2023-05-04T12:51:40.200Z,21.10
2023-05-04T12:54:09.461Z,21.10
2023-05-04T12:56:37.212Z,21.10
2023-05-04T12:59:04.193Z,21.00
2023-05-04T13:01:33.802Z,21.00
2023-05-04T13:04:00.686Z,21.00
2023-05-04T13:06:30.186Z,20.80
2023-05-04T13:09:01.701Z,20.80
2023-05-04T13:11:28.930Z,20.70
2023-05-04T13:13:56.480Z,20.40
2023-05-04T13:16:23.505Z,20.30
2023-05-04T13:18:51.106Z,20.40
2023-05-04T13:21:17.972Z,20.50
2023-05-04T13:23:45.105Z,20.60
2023-05-04T13:26:12.228Z,20.60
2023-05-04T13:28:39.514Z,20.70
2023-05-04T13:31:09.664Z,20.70
2023-05-04T13:33:38.810Z,20.70
2023-05-04T13:36:08.832Z,20.80
2023-05-04T13:38:35.761Z,20.70
2023-05-04T13:41:04.744Z,20.80
2023-05-04T13:43:31.647Z,20.80
2023-05-04T13:46:03.089Z,20.80
2023-05-04T13:48:32.733Z,20.90
2023-05-04T13:50:59.822Z,21.80
2023-05-04T13:53:26.665Z,23.40
2023-05-04T13:55:53.579Z,24.40
2023-05-04T13:58:20.458Z,25.00
2023-05-04T14:00:47.488Z,25.90
2023-05-04T14:03:17.781Z,26.90
2023-05-04T14:05:45.346Z,28.10
2023-05-04T14:08:13.059Z,29.30
2023-05-04T14:10:40.025Z,30.80
2023-05-04T14:13:07.320Z,31.40
2023-05-04T14:15:34.424Z,32.20
2023-05-04T14:18:01.611Z,33.50
2023-05-04T14:20:28.660Z,33.20
2023-05-04T14:22:55.530Z,34.00
2023-05-04T14:25:27.253Z,33.30
2023-05-04T14:28:01.787Z,32.70
2023-05-04T14:30:28.745Z,31.80
2023-05-04T14:32:58.176Z,30.50
2023-05-04T14:35:25.586Z,29.80
2023-05-04T14:37:55.145Z,29.90
2023-05-04T14:40:22.205Z,28.60
2023-05-04T14:42:49.089Z,28.10
2023-05-04T14:45:18.342Z,27.60
2023-05-04T14:47:45.487Z,28.40
2023-05-04T14:50:13.104Z,28.10
2023-05-04T14:52:40.095Z,28.10
2023-05-04T14:55:09.834Z,27.20
2023-05-04T14:57:36.700Z,26.00
2023-05-04T15:00:08.260Z,25.50
2023-05-04T15:02:35.892Z,25.10
2023-05-04T15:05:03.272Z,24.40
2023-05-04T15:07:30.353Z,24.60
2023-05-04T15:09:57.361Z,24.60
2023-05-04T15:12:26.226Z,25.60
2023-05-04T15:14:53.191Z,25.00
2023-05-04T15:17:22.313Z,24.40
2023-05-04T15:19:49.161Z,24.00
2023-05-04T15:22:16.133Z,24.10
2023-05-04T15:24:43.549Z,23.90
2023-05-04T15:27:10.442Z,24.00
2023-05-04T15:33:57.449Z,23.30
2023-05-04T15:36:24.732Z,22.80
2023-05-04T15:38:51.668Z,22.50
2023-05-04T15:41:18.650Z,22.30
2023-05-04T15:43:45.573Z,21.90
2023-05-04T15:46:12.482Z,21.60
2023-05-04T15:48:39.365Z,21.60
2023-05-04T15:51:17.362Z,21.50
2023-05-04T15:53:44.599Z,21.50
2023-05-04T15:56:13.208Z,21.40
2023-05-04T15:58:42.300Z,21.50
2023-05-04T16:01:13.910Z,21.40
2023-05-04T16:03:43.806Z,21.40
2023-05-04T16:06:11.924Z,21.30
2023-05-04T16:08:39.389Z,21.10
2023-05-04T16:11:09.392Z,20.90
2023-05-04T16:13:36.644Z,20.70
2023-05-04T16:16:04.370Z,20.60
2023-05-04T16:22:54.646Z,20.50
2023-05-04T16:25:26.199Z,20.40
2023-05-04T16:27:53.337Z,20.40
2023-05-04T16:30:23.096Z,20.30
2023-05-04T16:32:50.072Z,20.30
2023-05-04T16:35:17.123Z,20.20
2023-05-04T16:37:44.087Z,20.10
2023-05-04T16:40:15.199Z,20.00
2023-05-04T16:42:43.265Z,19.90
2023-05-04T16:45:12.105Z,19.90
2023-05-04T16:47:42.585Z,19.90
2023-05-04T16:50:11.518Z,19.80
2023-05-04T16:52:39.683Z,19.80
2023-05-04T16:55:10.620Z,19.70
2023-05-04T16:57:38.845Z,19.70
2023-05-04T17:00:07.269Z,19.70
2023-05-04T17:02:35.369Z,19.60
2023-05-04T17:05:06.432Z,19.50
2023-05-04T17:07:38.291Z,19.50
2023-05-04T17:10:06.934Z,19.50
2023-05-04T17:12:33.964Z,19.50
2023-05-04T17:15:00.930Z,19.50
2023-05-04T17:17:28.073Z,19.40
2023-05-04T17:19:54.921Z,19.40
2023-05-04T17:22:25.272Z,19.30
2023-05-04T17:24:52.456Z,19.30
2023-05-04T17:27:19.471Z,19.30
2023-05-04T17:29:48.624Z,19.20
2023-05-04T17:32:15.575Z,19.10
2023-05-04T17:34:42.551Z,19.00
2023-05-04T17:37:11.882Z,19.00
2023-05-04T17:39:38.732Z,19.00
2023-05-04T17:42:05.936Z,18.90
2023-05-04T17:44:32.922Z,18.90
2023-05-04T17:47:00.350Z,18.80
2023-05-04T17:49:27.336Z,18.80
2023-05-04T17:51:59.537Z,18.80
2023-05-04T17:54:28.521Z,18.80
2023-05-04T17:56:55.464Z,18.70
2023-05-04T17:59:22.406Z,18.70
2023-05-04T18:01:51.936Z,18.70
2023-05-04T18:04:20.841Z,18.70
2023-05-04T18:06:50.982Z,18.60
2023-05-04T18:09:19.488Z,18.60
2023-05-04T18:11:47.050Z,18.60
2023-05-04T18:14:13.889Z,18.50
2023-05-04T18:16:40.994Z,18.50
2023-05-04T18:19:08.083Z,18.50
2023-05-04T18:21:40.046Z,18.50
2023-05-04T18:24:10.168Z,18.50
2023-05-04T18:31:03.691Z,18.40
2023-05-04T18:33:31.358Z,18.30
2023-05-04T18:36:00.346Z,18.30
2023-05-04T18:38:29.226Z,18.20
2023-05-04T18:40:56.233Z,18.20
2023-05-04T18:43:23.154Z,18.20
2023-05-04T18:45:50.164Z,18.10
2023-05-04T18:48:19.534Z,18.10
2023-05-04T18:50:59.224Z,18.10
2023-05-04T18:53:26.442Z,18.10
2023-05-04T18:56:06.949Z,18.00
2023-05-04T18:58:35.607Z,18.00
2023-05-04T19:01:05.711Z,18.00
2023-05-04T19:03:32.843Z,18.00
2023-05-04T19:05:59.845Z,17.90
2023-05-04T19:08:27.205Z,17.90
2023-05-04T19:10:59.785Z,17.90
2023-05-04T19:13:27.097Z,17.90
2023-05-04T19:15:54.119Z,17.80
2023-05-04T19:18:22.073Z,17.80
2023-05-04T19:20:51.545Z,17.70
2023-05-04T19:23:20.588Z,17.60
2023-05-04T19:25:47.735Z,17.60
2023-05-04T19:28:15.073Z,17.50
2023-05-04T19:30:44.505Z,17.50
2023-05-04T19:33:11.618Z,17.40
2023-05-04T19:35:41.184Z,17.50
2023-05-04T19:38:08.109Z,17.50
2023-05-04T19:40:35.218Z,17.40
2023-05-04T19:43:02.399Z,17.30
2023-05-04T19:45:29.387Z,17.30
2023-05-04T19:47:56.581Z,17.30
2023-05-04T19:50:23.598Z,17.30
2023-05-04T19:52:50.662Z,17.20
2023-05-04T19:55:20.331Z,17.20
2023-05-04T19:57:49.853Z,17.20
2023-05-04T20:00:20.664Z,17.20
2023-05-04T20:02:47.949Z,17.10
2023-05-04T20:05:17.635Z,17.10
2023-05-04T20:07:44.564Z,17.00
2023-05-04T20:10:16.645Z,17.00
2023-05-04T20:12:43.704Z,17.00
2023-05-04T20:15:10.735Z,17.00
2023-05-04T20:17:38.040Z,17.00
2023-05-04T20:20:06.133Z,17.00
2023-05-04T20:22:35.637Z,17.00
2023-05-04T20:25:02.538Z,17.00
2023-05-04T20:27:29.443Z,16.90
2023-05-04T20:29:56.438Z,16.90
2023-05-04T20:32:23.443Z,16.90
2023-05-04T20:34:50.433Z,16.80
2023-05-04T20:37:17.585Z,16.80
2023-05-04T20:39:44.557Z,16.70
2023-05-04T20:42:13.709Z,16.70
2023-05-04T20:44:40.578Z,16.60
2023-05-04T20:47:07.561Z,16.50
2023-05-04T20:49:34.699Z,16.50
2023-05-04T20:52:01.887Z,16.40
2023-05-04T20:54:28.928Z,16.40
2023-05-04T20:56:55.923Z,16.30
2023-05-04T20:59:22.878Z,16.30
2023-05-04T21:01:49.921Z,16.30
2023-05-04T21:04:16.945Z,16.20
2023-05-04T21:06:45.184Z,16.20
2023-05-04T21:09:13.420Z,16.20
2023-05-04T21:11:40.780Z,16.20
2023-05-04T21:14:07.784Z,16.10
2023-05-04T21:16:34.762Z,16.10
2023-05-04T21:19:01.780Z,16.00
2023-05-04T21:21:28.713Z,16.00
2023-05-04T21:23:55.506Z,15.90
2023-05-04T21:26:22.842Z,15.90
2023-05-04T21:28:50.733Z,15.80
2023-05-04T21:31:19.943Z,15.90
2023-05-04T21:33:47.256Z,15.80
2023-05-04T21:36:15.122Z,15.80
2023-05-04T21:38:42.721Z,15.90
2023-05-04T21:41:14.507Z,15.80
2023-05-04T21:43:42.342Z,15.80
2023-05-04T21:46:09.569Z,15.80
2023-05-04T21:48:39.779Z,15.70
2023-05-04T21:51:09.032Z,15.60
2023-05-04T21:53:38.245Z,15.70
2023-05-04T21:56:09.364Z,15.60
2023-05-04T21:58:39.548Z,15.50
2023-05-04T22:01:14.660Z,15.40
2023-05-04T22:03:41.711Z,15.40
2023-05-04T22:06:10.941Z,15.30
2023-05-04T22:08:40.581Z,15.30
2023-05-04T22:11:07.541Z,15.30
2023-05-04T22:13:34.397Z,15.30
2023-05-04T22:16:01.328Z,15.30
2023-05-04T22:18:28.302Z,15.30
2023-05-04T22:20:55.210Z,15.20
2023-05-04T22:23:24.429Z,15.10
2023-05-04T22:25:51.420Z,15.10
2023-05-04T22:28:18.422Z,15.00
2023-05-04T22:30:47.874Z,15.00
2023-05-04T22:33:14.812Z,14.90
2023-05-04T22:35:41.960Z,14.90
2023-05-04T22:38:08.887Z,14.90
2023-05-04T22:40:40.378Z,14.80
2023-05-04T22:43:10.471Z,14.80
2023-05-04T22:45:40.650Z,14.80
2023-05-04T22:48:09.807Z,14.80
2023-05-04T22:50:39.147Z,14.80
2023-05-04T22:53:06.092Z,14.80
2023-05-04T22:55:33.165Z,14.80
2023-05-04T22:58:02.092Z,14.80
2023-05-04T23:00:31.727Z,14.70
2023-05-04T23:03:01.090Z,14.60
2023-05-04T23:05:31.211Z,14.60
2023-05-04T23:08:01.097Z,14.60
2023-05-04T23:10:28.015Z,14.60
2023-05-04T23:12:54.914Z,14.60
2023-05-04T23:15:24.367Z,14.50
2023-05-04T23:17:51.326Z,14.50
2023-05-04T23:20:18.311Z,14.40
2023-05-04T23:22:45.265Z,14.40
2023-05-04T23:25:12.251Z,14.40
2023-05-04T23:27:39.514Z,14.40
2023-05-04T23:30:09.693Z,14.40
2023-05-04T23:32:39.343Z,14.40
2023-05-04T23:35:07.492Z,14.40
2023-05-04T23:37:34.372Z,14.40
2023-05-04T23:40:03.631Z,14.40
2023-05-04T23:42:30.581Z,14.30
2023-05-04T23:44:59.866Z,14.20
2023-05-04T23:47:29.273Z,14.10
2023-05-04T23:49:58.932Z,14.10
2023-05-04T23:52:25.837Z,14.00
2023-05-04T23:54:53.731Z,14.10
2023-05-04T23:57:20.605Z,14.10
2023-05-04T23:59:49.683Z,14.00
